Main page
METAR-TAF:

METAR-TAF

Airports :

Northwest Arkansas Regional Airport

Fayetteville, Arkansas, United States

latitude: 36-16-55N, longitude: 094-18-25W, elevation: 1286 ft

Current weather observation

The report was made 22 minutes ago, at 06:53 UTC
Calm wind
Temperature 39°F
Humidity 70%
Pressure 30.24 in. Hg
Visibility: 10 miles
Clear sky

METAR: KXNA 220653Z AUTO 00000KT 10SM CLR 04/M01 A3024 RMK AO2 SLP238 T00391011

Time: 02:15 (07:15 UTC)

Forecast

The report was made 1 hour and 55 minutes ago, at 05:20 UTC
Forecast valid from 22 at 06 UTC to 23 at 06 UTC
Wind 6 mph from variable directions
Visibility: 6 miles
Clear sky
From 22 at 1600 UTC
Wind 16 mph from the South/Southwest with gusts up to 25 mph
Visibility: 6 miles
Clear sky
From 23 at 0100 UTC
Wind 13 mph from the South
Visibility: 6 miles
Clear sky

TAF: KXNA 220520Z 2206/2306 VRB05KT P6SM SKC FM221600 20014G22KT P6SM SKC FM230100 19011KT P6SM SKC WS020/21044KT

Weather observations and forecasts of more than 4000 airports (METAR and TAF reports).

The available stations are represented by yellow and red dots on the map.

Hover mouse over dot to see the name of the station.

Then click to see weather observations and forecasts.

To change the map : click on the green buttons with a black cross to zoom in, on the green button with a dash to zoom out, or on the green arrows for adjacent maps.


METAR-TAF: